KFET/FET METAR and TAF weather

Enter ICAO airport designator
Station Type Date Time Source
KFET METAR 2019/12/08 06:55 UTC NOAA

KFET 080655Z AUTO 20004KT 10SM CLR 06/M01 A2983 RMK AO2 T00551010


Station Type Date Time Source
KFET Decoded METAR 2019/12/08 06:55 UTC NOAA

Fremont Municipal Airport, NE, United States (KFET) 41-27N 096-31W
Dec 08, 2019 - 01:55 AM EST / 2019.12.08 0655 UTC
Wind: from the SSW (200 degrees) at 5 MPH (4 KT):0
Visibility: 10 mile(s):0
Sky conditions: clear
Temperature: 41.9 F (5.5 C)
Dew Point: 30.2 F (-1.0 C)
Relative Humidity: 62%
Pressure (altimeter): 29.83 in. Hg (1010 hPa)
ob: KFET 080655Z AUTO 20004KT 10SM CLR 06/M01 A2983 RMK AO2 T00551010
cycle: 7

Station Type Date Time Source
KFET TAF UTC NOAA

Error!

Example: see airport list